sensor_id;sensor_type;location;lat;lon;timestamp;temperature;humidity
29031;DHT22;16122;50.236;11.734;2023-12-22T00:01:22;15.70;95.20
29031;DHT22;16122;50.236;11.734;2023-12-22T00:03:48;15.70;95.20
29031;DHT22;16122;50.236;11.734;2023-12-22T00:06:15;15.60;95.10
29031;DHT22;16122;50.236;11.734;2023-12-22T00:08:41;15.60;95.00
29031;DHT22;16122;50.236;11.734;2023-12-22T00:11:07;15.70;95.10
29031;DHT22;16122;50.236;11.734;2023-12-22T00:13:33;15.70;95.00
29031;DHT22;16122;50.236;11.734;2023-12-22T00:15:59;15.70;95.00
29031;DHT22;16122;50.236;11.734;2023-12-22T00:18:28;15.70;94.90
29031;DHT22;16122;50.236;11.734;2023-12-22T00:20:54;15.80;95.00
29031;DHT22;16122;50.236;11.734;2023-12-22T00:23:19;15.70;94.90
29031;DHT22;16122;50.236;11.734;2023-12-22T00:25:45;15.80;94.90
29031;DHT22;16122;50.236;11.734;2023-12-22T00:28:11;15.80;94.80
29031;DHT22;16122;50.236;11.734;2023-12-22T00:30:37;15.80;94.90
29031;DHT22;16122;50.236;11.734;2023-12-22T00:33:03;15.80;94.80
29031;DHT22;16122;50.236;11.734;2023-12-22T00:35:28;15.80;94.80
29031;DHT22;16122;50.236;11.734;2023-12-22T00:37:54;15.80;94.70
29031;DHT22;16122;50.236;11.734;2023-12-22T00:40:20;15.80;94.70
29031;DHT22;16122;50.236;11.734;2023-12-22T00:42:46;15.80;94.70
29031;DHT22;16122;50.236;11.734;2023-12-22T00:45:12;15.80;94.70
29031;DHT22;16122;50.236;11.734;2023-12-22T00:47:37;15.80;94.70
29031;DHT22;16122;50.236;11.734;2023-12-22T00:50:04;15.90;94.70
29031;DHT22;16122;50.236;11.734;2023-12-22T00:52:31;15.80;94.60
29031;DHT22;16122;50.236;11.734;2023-12-22T00:54:57;15.80;94.50
29031;DHT22;16122;50.236;11.734;2023-12-22T00:57:23;15.90;94.60
29031;DHT22;16122;50.236;11.734;2023-12-22T00:59:49;15.90;94.50
29031;DHT22;16122;50.236;11.734;2023-12-22T01:02:15;15.90;94.50
29031;DHT22;16122;50.236;11.734;2023-12-22T01:04:41;15.90;94.50
29031;DHT22;16122;50.236;11.734;2023-12-22T01:07:10;15.90;94.40
29031;DHT22;16122;50.236;11.734;2023-12-22T01:09:37;15.90;94.40
29031;DHT22;16122;50.236;11.734;2023-12-22T01:12:06;15.90;94.40
29031;DHT22;16122;50.236;11.734;2023-12-22T01:14:32;15.90;94.40
29031;DHT22;16122;50.236;11.734;2023-12-22T01:16:58;15.90;94.40
29031;DHT22;16122;50.236;11.734;2023-12-22T01:19:27;15.90;94.40
29031;DHT22;16122;50.236;11.734;2023-12-22T01:21:53;15.90;94.30
29031;DHT22;16122;50.236;11.734;2023-12-22T01:24:19;16.00;94.50
29031;DHT22;16122;50.236;11.734;2023-12-22T01:26:45;16.00;94.30
29031;DHT22;16122;50.236;11.734;2023-12-22T01:29:11;15.90;94.20
29031;DHT22;16122;50.236;11.734;2023-12-22T01:31:36;15.90;94.30
29031;DHT22;16122;50.236;11.734;2023-12-22T01:34:02;15.90;94.20
29031;DHT22;16122;50.236;11.734;2023-12-22T01:36:28;15.90;94.20
29031;DHT22;16122;50.236;11.734;2023-12-22T01:38:54;16.00;94.20
29031;DHT22;16122;50.236;11.734;2023-12-22T01:41:19;15.90;94.30
29031;DHT22;16122;50.236;11.734;2023-12-22T01:43:45;15.90;94.30
29031;DHT22;16122;50.236;11.734;2023-12-22T01:46:12;15.90;94.20
29031;DHT22;16122;50.236;11.734;2023-12-22T01:48:38;16.00;94.30
29031;DHT22;16122;50.236;11.734;2023-12-22T01:51:04;16.00;94.40
29031;DHT22;16122;50.236;11.734;2023-12-22T01:53:32;16.00;94.20
29031;DHT22;16122;50.236;11.734;2023-12-22T01:56:00;15.90;94.10
29031;DHT22;16122;50.236;11.734;2023-12-22T01:58:27;16.00;94.20
29031;DHT22;16122;50.236;11.734;2023-12-22T02:00:55;15.90;94.10
29031;DHT22;16122;50.236;11.734;2023-12-22T02:03:22;16.00;94.10
29031;DHT22;16122;50.236;11.734;2023-12-22T02:05:49;16.00;94.10
29031;DHT22;16122;50.236;11.734;2023-12-22T02:08:18;16.00;94.10
29031;DHT22;16122;50.236;11.734;2023-12-22T02:10:44;16.00;94.10
29031;DHT22;16122;50.236;11.734;2023-12-22T02:13:11;16.00;94.00
29031;DHT22;16122;50.236;11.734;2023-12-22T02:15:37;16.00;94.00
29031;DHT22;16122;50.236;11.734;2023-12-22T02:18:16;16.00;94.10
29031;DHT22;16122;50.236;11.734;2023-12-22T02:20:44;16.10;94.00
29031;DHT22;16122;50.236;11.734;2023-12-22T02:23:10;16.00;94.00
29031;DHT22;16122;50.236;11.734;2023-12-22T02:25:36;16.00;94.00
29031;DHT22;16122;50.236;11.734;2023-12-22T02:28:05;16.00;94.00
29031;DHT22;16122;50.236;11.734;2023-12-22T02:33:07;16.10;93.90
29031;DHT22;16122;50.236;11.734;2023-12-22T02:35:36;16.00;93.70
29031;DHT22;16122;50.236;11.734;2023-12-22T02:38:05;15.90;93.70
29031;DHT22;16122;50.236;11.734;2023-12-22T02:40:31;16.10;93.80
29031;DHT22;16122;50.236;11.734;2023-12-22T02:42:58;16.10;93.70
29031;DHT22;16122;50.236;11.734;2023-12-22T02:45:24;16.10;93.80
29031;DHT22;16122;50.236;11.734;2023-12-22T02:47:50;16.10;93.80
29031;DHT22;16122;50.236;11.734;2023-12-22T02:50:16;16.10;93.80
29031;DHT22;16122;50.236;11.734;2023-12-22T02:52:43;16.10;93.90
29031;DHT22;16122;50.236;11.734;2023-12-22T02:55:09;16.10;93.90
29031;DHT22;16122;50.236;11.734;2023-12-22T02:57:35;16.10;93.80
29031;DHT22;16122;50.236;11.734;2023-12-22T03:00:01;16.10;94.00
29031;DHT22;16122;50.236;11.734;2023-12-22T03:02:27;16.10;93.90
29031;DHT22;16122;50.236;11.734;2023-12-22T03:04:52;16.10;93.80
29031;DHT22;16122;50.236;11.734;2023-12-22T03:07:18;16.10;94.30
29031;DHT22;16122;50.236;11.734;2023-12-22T03:09:44;16.10;93.90
29031;DHT22;16122;50.236;11.734;2023-12-22T03:12:10;16.10;93.90
29031;DHT22;16122;50.236;11.734;2023-12-22T03:14:36;16.10;93.80
29031;DHT22;16122;50.236;11.734;2023-12-22T03:17:04;16.10;93.70
29031;DHT22;16122;50.236;11.734;2023-12-22T03:19:33;16.10;93.80
29031;DHT22;16122;50.236;11.734;2023-12-22T03:22:00;16.10;93.60
29031;DHT22;16122;50.236;11.734;2023-12-22T03:24:26;16.10;93.60
29031;DHT22;16122;50.236;11.734;2023-12-22T03:26:54;16.10;93.70
29031;DHT22;16122;50.236;11.734;2023-12-22T03:29:20;16.10;93.70
29031;DHT22;16122;50.236;11.734;2023-12-22T03:31:46;16.10;93.60
29031;DHT22;16122;50.236;11.734;2023-12-22T03:34:13;16.10;93.70
29031;DHT22;16122;50.236;11.734;2023-12-22T03:36:39;16.10;93.70
29031;DHT22;16122;50.236;11.734;2023-12-22T03:39:05;16.10;93.80
29031;DHT22;16122;50.236;11.734;2023-12-22T03:41:31;16.20;93.80
29031;DHT22;16122;50.236;11.734;2023-12-22T03:43:57;16.20;93.80
29031;DHT22;16122;50.236;11.734;2023-12-22T03:46:23;16.10;93.80
29031;DHT22;16122;50.236;11.734;2023-12-22T03:48:50;16.10;93.60
29031;DHT22;16122;50.236;11.734;2023-12-22T03:51:16;16.10;93.60
29031;DHT22;16122;50.236;11.734;2023-12-22T03:53:42;16.10;93.70
29031;DHT22;16122;50.236;11.734;2023-12-22T03:56:08;16.10;93.70
29031;DHT22;16122;50.236;11.734;2023-12-22T03:58:35;16.10;93.70
29031;DHT22;16122;50.236;11.734;2023-12-22T04:01:01;16.10;93.70
29031;DHT22;16122;50.236;11.734;2023-12-22T04:03:27;16.10;93.70
29031;DHT22;16122;50.236;11.734;2023-12-22T04:05:53;16.10;93.70
29031;DHT22;16122;50.236;11.734;2023-12-22T04:08:18;16.10;93.50
29031;DHT22;16122;50.236;11.734;2023-12-22T04:10:46;16.20;93.60
29031;DHT22;16122;50.236;11.734;2023-12-22T04:13:13;16.10;93.60
29031;DHT22;16122;50.236;11.734;2023-12-22T04:15:38;16.10;93.60
29031;DHT22;16122;50.236;11.734;2023-12-22T04:18:04;16.10;93.50
29031;DHT22;16122;50.236;11.734;2023-12-22T04:20:30;16.10;93.40
29031;DHT22;16122;50.236;11.734;2023-12-22T04:22:57;16.10;93.40
29031;DHT22;16122;50.236;11.734;2023-12-22T04:25:23;16.20;93.50
29031;DHT22;16122;50.236;11.734;2023-12-22T04:27:50;16.10;93.40
29031;DHT22;16122;50.236;11.734;2023-12-22T04:30:16;16.10;93.40
29031;DHT22;16122;50.236;11.734;2023-12-22T04:32:42;16.10;93.30
29031;DHT22;16122;50.236;11.734;2023-12-22T04:35:08;16.10;93.40
29031;DHT22;16122;50.236;11.734;2023-12-22T04:37:34;16.10;93.40
29031;DHT22;16122;50.236;11.734;2023-12-22T04:40:00;16.10;93.40
29031;DHT22;16122;50.236;11.734;2023-12-22T04:42:26;16.10;93.40
29031;DHT22;16122;50.236;11.734;2023-12-22T04:44:52;16.10;93.50
29031;DHT22;16122;50.236;11.734;2023-12-22T04:47:18;16.10;93.70
29031;DHT22;16122;50.236;11.734;2023-12-22T04:49:44;16.10;93.40
29031;DHT22;16122;50.236;11.734;2023-12-22T04:52:11;16.10;93.40
29031;DHT22;16122;50.236;11.734;2023-12-22T04:54:37;16.10;93.40
29031;DHT22;16122;50.236;11.734;2023-12-22T04:57:04;16.20;93.50
29031;DHT22;16122;50.236;11.734;2023-12-22T04:59:29;16.20;93.60
29031;DHT22;16122;50.236;11.734;2023-12-22T05:01:55;16.10;93.50
29031;DHT22;16122;50.236;11.734;2023-12-22T05:04:21;16.10;93.50
29031;DHT22;16122;50.236;11.734;2023-12-22T05:06:50;16.10;93.50
29031;DHT22;16122;50.236;11.734;2023-12-22T05:09:16;16.10;93.90
29031;DHT22;16122;50.236;11.734;2023-12-22T05:11:42;16.10;93.60
29031;DHT22;16122;50.236;11.734;2023-12-22T05:14:08;16.10;93.60
29031;DHT22;16122;50.236;11.734;2023-12-22T05:16:34;16.10;93.70
29031;DHT22;16122;50.236;11.734;2023-12-22T05:19:00;16.10;93.70
29031;DHT22;16122;50.236;11.734;2023-12-22T05:21:26;16.10;93.80
29031;DHT22;16122;50.236;11.734;2023-12-22T05:23:53;16.10;93.80
29031;DHT22;16122;50.236;11.734;2023-12-22T05:26:22;16.10;93.80
29031;DHT22;16122;50.236;11.734;2023-12-22T05:28:49;16.10;93.80
29031;DHT22;16122;50.236;11.734;2023-12-22T05:31:16;16.10;93.80
29031;DHT22;16122;50.236;11.734;2023-12-22T05:33:43;16.20;93.80
29031;DHT22;16122;50.236;11.734;2023-12-22T05:36:08;16.10;93.90
29031;DHT22;16122;50.236;11.734;2023-12-22T05:38:38;16.10;93.90
29031;DHT22;16122;50.236;11.734;2023-12-22T05:41:04;16.10;93.90
29031;DHT22;16122;50.236;11.734;2023-12-22T05:43:33;16.10;93.80
29031;DHT22;16122;50.236;11.734;2023-12-22T05:45:59;16.10;93.90
29031;DHT22;16122;50.236;11.734;2023-12-22T05:48:28;16.10;93.80
29031;DHT22;16122;50.236;11.734;2023-12-22T05:50:56;16.10;93.80
29031;DHT22;16122;50.236;11.734;2023-12-22T05:53:23;16.20;94.00
29031;DHT22;16122;50.236;11.734;2023-12-22T05:55:48;16.10;94.00
29031;DHT22;16122;50.236;11.734;2023-12-22T05:58:14;16.10;94.00
29031;DHT22;16122;50.236;11.734;2023-12-22T06:00:40;16.20;94.20
29031;DHT22;16122;50.236;11.734;2023-12-22T06:03:06;16.10;94.10
29031;DHT22;16122;50.236;11.734;2023-12-22T06:05:31;16.10;94.20
29031;DHT22;16122;50.236;11.734;2023-12-22T06:07:57;16.20;94.20
29031;DHT22;16122;50.236;11.734;2023-12-22T06:10:23;16.20;94.20
29031;DHT22;16122;50.236;11.734;2023-12-22T06:12:49;16.20;94.20
29031;DHT22;16122;50.236;11.734;2023-12-22T06:15:15;16.20;94.30
29031;DHT22;16122;50.236;11.734;2023-12-22T06:17:41;16.20;94.30
29031;DHT22;16122;50.236;11.734;2023-12-22T06:20:07;16.20;94.30
29031;DHT22;16122;50.236;11.734;2023-12-22T06:22:33;16.20;94.30
29031;DHT22;16122;50.236;11.734;2023-12-22T06:24:59;16.20;94.30
29031;DHT22;16122;50.236;11.734;2023-12-22T06:27:25;16.20;94.70
29031;DHT22;16122;50.236;11.734;2023-12-22T06:29:51;16.20;94.30
29031;DHT22;16122;50.236;11.734;2023-12-22T06:32:17;16.20;94.40
29031;DHT22;16122;50.236;11.734;2023-12-22T06:34:43;16.20;94.30
29031;DHT22;16122;50.236;11.734;2023-12-22T06:37:08;16.20;94.30
29031;DHT22;16122;50.236;11.734;2023-12-22T06:39:36;16.20;94.40
29031;DHT22;16122;50.236;11.734;2023-12-22T06:42:02;16.20;94.40
29031;DHT22;16122;50.236;11.734;2023-12-22T06:44:29;16.20;94.40
29031;DHT22;16122;50.236;11.734;2023-12-22T06:46:57;16.10;94.40
29031;DHT22;16122;50.236;11.734;2023-12-22T06:49:22;16.20;94.40
29031;DHT22;16122;50.236;11.734;2023-12-22T06:51:48;16.20;94.40
29031;DHT22;16122;50.236;11.734;2023-12-22T06:54:14;16.20;94.40
29031;DHT22;16122;50.236;11.734;2023-12-22T06:56:40;16.20;94.40
29031;DHT22;16122;50.236;11.734;2023-12-22T06:59:06;16.20;94.40
29031;DHT22;16122;50.236;11.734;2023-12-22T07:01:33;16.20;94.40
29031;DHT22;16122;50.236;11.734;2023-12-22T07:04:02;16.20;94.50
29031;DHT22;16122;50.236;11.734;2023-12-22T07:06:32;16.20;94.40
29031;DHT22;16122;50.236;11.734;2023-12-22T07:11:41;16.20;94.30
29031;DHT22;16122;50.236;11.734;2023-12-22T07:14:07;16.20;94.30
29031;DHT22;16122;50.236;11.734;2023-12-22T07:16:36;16.20;94.30
29031;DHT22;16122;50.236;11.734;2023-12-22T07:19:03;16.20;94.30
29031;DHT22;16122;50.236;11.734;2023-12-22T07:21:29;16.20;94.30
29031;DHT22;16122;50.236;11.734;2023-12-22T07:23:55;16.30;94.40
29031;DHT22;16122;50.236;11.734;2023-12-22T07:26:20;16.20;94.30
29031;DHT22;16122;50.236;11.734;2023-12-22T07:28:47;16.20;94.70
29031;DHT22;16122;50.236;11.734;2023-12-22T07:31:14;16.20;94.40
29031;DHT22;16122;50.236;11.734;2023-12-22T07:33:40;16.20;94.30
29031;DHT22;16122;50.236;11.734;2023-12-22T07:36:08;16.20;94.30
29031;DHT22;16122;50.236;11.734;2023-12-22T07:38:34;16.20;94.40
29031;DHT22;16122;50.236;11.734;2023-12-22T07:41:00;16.20;94.40
29031;DHT22;16122;50.236;11.734;2023-12-22T07:43:26;16.20;94.40
29031;DHT22;16122;50.236;11.734;2023-12-22T07:45:52;16.20;94.40
29031;DHT22;16122;50.236;11.734;2023-12-22T07:48:19;16.20;94.40
29031;DHT22;16122;50.236;11.734;2023-12-22T07:50:45;16.20;94.30
29031;DHT22;16122;50.236;11.734;2023-12-22T07:53:11;16.20;94.30
29031;DHT22;16122;50.236;11.734;2023-12-22T07:55:37;16.20;94.30
29031;DHT22;16122;50.236;11.734;2023-12-22T07:58:04;16.20;94.20
29031;DHT22;16122;50.236;11.734;2023-12-22T08:00:30;16.20;94.30
29031;DHT22;16122;50.236;11.734;2023-12-22T08:02:56;16.20;94.30
29031;DHT22;16122;50.236;11.734;2023-12-22T08:05:22;16.20;94.30
29031;DHT22;16122;50.236;11.734;2023-12-22T08:07:48;16.20;94.30
29031;DHT22;16122;50.236;11.734;2023-12-22T08:10:14;16.20;94.30
29031;DHT22;16122;50.236;11.734;2023-12-22T08:12:41;16.20;94.30
29031;DHT22;16122;50.236;11.734;2023-12-22T08:15:07;16.20;94.60
29031;DHT22;16122;50.236;11.734;2023-12-22T08:17:33;16.20;94.30
29031;DHT22;16122;50.236;11.734;2023-12-22T08:19:59;16.20;94.30
29031;DHT22;16122;50.236;11.734;2023-12-22T08:22:24;16.20;94.30
29031;DHT22;16122;50.236;11.734;2023-12-22T08:24:50;16.10;94.30
29031;DHT22;16122;50.236;11.734;2023-12-22T08:27:16;16.10;94.30
29031;DHT22;16122;50.236;11.734;2023-12-22T08:29:42;16.10;94.30
29031;DHT22;16122;50.236;11.734;2023-12-22T08:32:08;16.20;94.30
29031;DHT22;16122;50.236;11.734;2023-12-22T08:34:34;16.10;94.30
29031;DHT22;16122;50.236;11.734;2023-12-22T08:37:00;16.10;94.30
29031;DHT22;16122;50.236;11.734;2023-12-22T08:39:26;16.20;94.30
29031;DHT22;16122;50.236;11.734;2023-12-22T08:41:52;16.10;94.30
29031;DHT22;16122;50.236;11.734;2023-12-22T08:44:19;16.10;94.30
29031;DHT22;16122;50.236;11.734;2023-12-22T08:46:44;16.10;94.30
29031;DHT22;16122;50.236;11.734;2023-12-22T08:49:11;16.10;94.30
29031;DHT22;16122;50.236;11.734;2023-12-22T08:51:37;16.10;94.30
29031;DHT22;16122;50.236;11.734;2023-12-22T08:54:02;16.10;94.30
29031;DHT22;16122;50.236;11.734;2023-12-22T08:56:31;16.10;94.20
29031;DHT22;16122;50.236;11.734;2023-12-22T08:58:57;16.10;94.30
29031;DHT22;16122;50.236;11.734;2023-12-22T09:01:26;16.10;94.30
29031;DHT22;16122;50.236;11.734;2023-12-22T09:03:51;16.10;94.30
29031;DHT22;16122;50.236;11.734;2023-12-22T09:06:22;16.10;94.30
29031;DHT22;16122;50.236;11.734;2023-12-22T09:08:48;16.10;94.30
29031;DHT22;16122;50.236;11.734;2023-12-22T09:11:20;16.10;94.20
29031;DHT22;16122;50.236;11.734;2023-12-22T09:13:46;16.10;94.10
29031;DHT22;16122;50.236;11.734;2023-12-22T09:16:12;16.10;93.90
29031;DHT22;16122;50.236;11.734;2023-12-22T09:18:40;16.10;94.00
29031;DHT22;16122;50.236;11.734;2023-12-22T09:21:07;16.00;94.00
29031;DHT22;16122;50.236;11.734;2023-12-22T09:23:33;16.00;94.00
29031;DHT22;16122;50.236;11.734;2023-12-22T09:25:59;16.00;94.00
29031;DHT22;16122;50.236;11.734;2023-12-22T09:28:25;16.10;94.00
29031;DHT22;16122;50.236;11.734;2023-12-22T09:30:51;16.00;94.00
29031;DHT22;16122;50.236;11.734;2023-12-22T09:33:17;16.00;93.70
29031;DHT22;16122;50.236;11.734;2023-12-22T09:35:42;16.00;93.70
29031;DHT22;16122;50.236;11.734;2023-12-22T09:38:10;16.00;93.70
29031;DHT22;16122;50.236;11.734;2023-12-22T09:40:35;16.00;93.60
29031;DHT22;16122;50.236;11.734;2023-12-22T09:43:06;16.00;93.70
29031;DHT22;16122;50.236;11.734;2023-12-22T09:45:36;16.00;93.70
29031;DHT22;16122;50.236;11.734;2023-12-22T09:48:04;16.00;93.60
29031;DHT22;16122;50.236;11.734;2023-12-22T09:50:31;16.00;93.60
29031;DHT22;16122;50.236;11.734;2023-12-22T09:52:57;16.00;93.60
29031;DHT22;16122;50.236;11.734;2023-12-22T09:55:23;16.00;93.40
29031;DHT22;16122;50.236;11.734;2023-12-22T09:57:51;16.00;93.40
29031;DHT22;16122;50.236;11.734;2023-12-22T10:00:18;16.10;93.50
29031;DHT22;16122;50.236;11.734;2023-12-22T10:02:45;16.00;93.60
29031;DHT22;16122;50.236;11.734;2023-12-22T10:05:11;16.10;93.70
29031;DHT22;16122;50.236;11.734;2023-12-22T10:07:42;16.00;93.60
29031;DHT22;16122;50.236;11.734;2023-12-22T10:10:10;16.00;93.70
29031;DHT22;16122;50.236;11.734;2023-12-22T10:12:38;16.10;93.70
29031;DHT22;16122;50.236;11.734;2023-12-22T10:15:05;16.10;93.90
29031;DHT22;16122;50.236;11.734;2023-12-22T10:17:34;16.00;93.90
29031;DHT22;16122;50.236;11.734;2023-12-22T10:20:01;16.00;93.80
29031;DHT22;16122;50.236;11.734;2023-12-22T10:22:28;16.00;93.90
29031;DHT22;16122;50.236;11.734;2023-12-22T10:24:54;16.00;93.90
29031;DHT22;16122;50.236;11.734;2023-12-22T10:27:20;16.00;93.90
29031;DHT22;16122;50.236;11.734;2023-12-22T10:29:55;16.00;94.20
29031;DHT22;16122;50.236;11.734;2023-12-22T10:32:22;16.00;94.50
29031;DHT22;16122;50.236;11.734;2023-12-22T10:34:51;16.00;94.50
29031;DHT22;16122;50.236;11.734;2023-12-22T10:37:16;16.00;94.50
29031;DHT22;16122;50.236;11.734;2023-12-22T10:39:42;16.00;94.50
29031;DHT22;16122;50.236;11.734;2023-12-22T10:42:09;16.00;94.50
29031;DHT22;16122;50.236;11.734;2023-12-22T10:44:35;16.00;94.60
29031;DHT22;16122;50.236;11.734;2023-12-22T10:47:05;15.90;94.60
29031;DHT22;16122;50.236;11.734;2023-12-22T10:49:32;15.90;94.70
29031;DHT22;16122;50.236;11.734;2023-12-22T10:51:59;15.90;94.70
29031;DHT22;16122;50.236;11.734;2023-12-22T10:54:25;15.90;94.80
29031;DHT22;16122;50.236;11.734;2023-12-22T10:56:51;15.90;94.80
29031;DHT22;16122;50.236;11.734;2023-12-22T10:59:23;15.90;94.80
29031;DHT22;16122;50.236;11.734;2023-12-22T11:01:51;16.00;94.90
29031;DHT22;16122;50.236;11.734;2023-12-22T11:04:18;16.00;95.00
29031;DHT22;16122;50.236;11.734;2023-12-22T11:06:47;15.90;94.90
29031;DHT22;16122;50.236;11.734;2023-12-22T11:09:16;15.90;94.90
29031;DHT22;16122;50.236;11.734;2023-12-22T11:11:43;15.90;94.90
29031;DHT22;16122;50.236;11.734;2023-12-22T11:14:09;15.90;94.90
29031;DHT22;16122;50.236;11.734;2023-12-22T11:16:36;15.90;94.90
29031;DHT22;16122;50.236;11.734;2023-12-22T11:19:03;15.90;94.90
29031;DHT22;16122;50.236;11.734;2023-12-22T11:21:29;15.90;94.90
29031;DHT22;16122;50.236;11.734;2023-12-22T11:23:57;15.90;94.90
29031;DHT22;16122;50.236;11.734;2023-12-22T11:26:24;15.90;95.00
29031;DHT22;16122;50.236;11.734;2023-12-22T11:28:51;15.90;95.00
29031;DHT22;16122;50.236;11.734;2023-12-22T11:31:18;15.90;95.00
29031;DHT22;16122;50.236;11.734;2023-12-22T11:33:49;15.80;94.90
29031;DHT22;16122;50.236;11.734;2023-12-22T11:36:16;15.80;94.90
29031;DHT22;16122;50.236;11.734;2023-12-22T11:38:44;15.80;94.90
29031;DHT22;16122;50.236;11.734;2023-12-22T11:41:26;15.80;94.90
29031;DHT22;16122;50.236;11.734;2023-12-22T11:43:54;15.80;94.90
29031;DHT22;16122;50.236;11.734;2023-12-22T11:46:21;15.80;94.90
29031;DHT22;16122;50.236;11.734;2023-12-22T11:48:52;15.80;95.30
29031;DHT22;16122;50.236;11.734;2023-12-22T11:51:18;15.80;95.00
29031;DHT22;16122;50.236;11.734;2023-12-22T11:53:45;15.80;95.00
29031;DHT22;16122;50.236;11.734;2023-12-22T11:56:12;15.80;95.00
29031;DHT22;16122;50.236;11.734;2023-12-22T12:01:14;15.80;94.90
29031;DHT22;16122;50.236;11.734;2023-12-22T12:03:51;15.80;94.80
29031;DHT22;16122;50.236;11.734;2023-12-22T12:08:52;15.80;94.80
29031;DHT22;16122;50.236;11.734;2023-12-22T12:11:19;15.80;94.80
29031;DHT22;16122;50.236;11.734;2023-12-22T12:13:46;15.80;94.80
29031;DHT22;16122;50.236;11.734;2023-12-22T12:16:19;15.80;94.90
29031;DHT22;16122;50.236;11.734;2023-12-22T12:18:49;15.80;94.80
29031;DHT22;16122;50.236;11.734;2023-12-22T12:21:15;15.80;94.80
29031;DHT22;16122;50.236;11.734;2023-12-22T12:23:42;15.80;94.90
29031;DHT22;16122;50.236;11.734;2023-12-22T12:26:08;15.70;94.90
29031;DHT22;16122;50.236;11.734;2023-12-22T12:28:35;15.80;95.00
29031;DHT22;16122;50.236;11.734;2023-12-22T12:31:06;15.70;95.10
29031;DHT22;16122;50.236;11.734;2023-12-22T12:33:32;15.80;95.00
29031;DHT22;16122;50.236;11.734;2023-12-22T12:36:00;15.80;94.90
29031;DHT22;16122;50.236;11.734;2023-12-22T12:41:18;15.70;94.80
29031;DHT22;16122;50.236;11.734;2023-12-22T12:43:51;15.80;95.00
29031;DHT22;16122;50.236;11.734;2023-12-22T12:46:17;15.70;95.00
29031;DHT22;16122;50.236;11.734;2023-12-22T12:48:43;15.70;95.00
29031;DHT22;16122;50.236;11.734;2023-12-22T12:51:08;15.70;95.10
29031;DHT22;16122;50.236;11.734;2023-12-22T12:53:36;15.70;95.20
29031;DHT22;16122;50.236;11.734;2023-12-22T12:56:04;15.70;95.20
29031;DHT22;16122;50.236;11.734;2023-12-22T12:58:31;15.80;95.40
29031;DHT22;16122;50.236;11.734;2023-12-22T13:01:06;15.70;95.40
29031;DHT22;16122;50.236;11.734;2023-12-22T13:03:32;15.80;95.50
29031;DHT22;16122;50.236;11.734;2023-12-22T13:06:08;15.70;95.50
29031;DHT22;16122;50.236;11.734;2023-12-22T13:08:34;15.80;95.60
29031;DHT22;16122;50.236;11.734;2023-12-22T13:11:00;15.80;95.70
29031;DHT22;16122;50.236;11.734;2023-12-22T13:13:29;15.80;95.80
29031;DHT22;16122;50.236;11.734;2023-12-22T13:15:55;15.80;95.80
29031;DHT22;16122;50.236;11.734;2023-12-22T13:18:21;15.70;95.70
29031;DHT22;16122;50.236;11.734;2023-12-22T13:20:47;15.80;95.70
29031;DHT22;16122;50.236;11.734;2023-12-22T13:23:18;15.70;95.70
29031;DHT22;16122;50.236;11.734;2023-12-22T13:25:44;15.70;95.70
29031;DHT22;16122;50.236;11.734;2023-12-22T13:28:10;15.70;95.70
29031;DHT22;16122;50.236;11.734;2023-12-22T13:30:39;15.70;95.80
29031;DHT22;16122;50.236;11.734;2023-12-22T13:33:09;15.70;95.80
29031;DHT22;16122;50.236;11.734;2023-12-22T13:35:36;15.70;95.70
29031;DHT22;16122;50.236;11.734;2023-12-22T13:38:05;15.70;95.80
29031;DHT22;16122;50.236;11.734;2023-12-22T13:40:32;15.70;95.80
29031;DHT22;16122;50.236;11.734;2023-12-22T13:42:58;15.70;95.80
29031;DHT22;16122;50.236;11.734;2023-12-22T13:45:28;15.70;95.90
29031;DHT22;16122;50.236;11.734;2023-12-22T13:47:54;15.70;95.80
29031;DHT22;16122;50.236;11.734;2023-12-22T13:50:20;15.70;95.90
29031;DHT22;16122;50.236;11.734;2023-12-22T13:52:49;15.70;95.80
29031;DHT22;16122;50.236;11.734;2023-12-22T13:55:18;15.70;95.80
29031;DHT22;16122;50.236;11.734;2023-12-22T13:57:44;15.70;95.80
29031;DHT22;16122;50.236;11.734;2023-12-22T14:02:42;15.70;95.90
29031;DHT22;16122;50.236;11.734;2023-12-22T14:05:08;15.70;95.80
29031;DHT22;16122;50.236;11.734;2023-12-22T14:07:34;15.70;95.90
29031;DHT22;16122;50.236;11.734;2023-12-22T14:10:06;15.70;95.80
29031;DHT22;16122;50.236;11.734;2023-12-22T14:12:32;15.70;95.80
29031;DHT22;16122;50.236;11.734;2023-12-22T14:14:58;15.70;95.80
29031;DHT22;16122;50.236;11.734;2023-12-22T14:17:25;15.70;95.70
29031;DHT22;16122;50.236;11.734;2023-12-22T14:19:51;15.70;95.70
29031;DHT22;16122;50.236;11.734;2023-12-22T14:22:17;15.70;95.70
29031;DHT22;16122;50.236;11.734;2023-12-22T14:24:43;15.60;95.60
29031;DHT22;16122;50.236;11.734;2023-12-22T14:27:08;15.70;95.70
29031;DHT22;16122;50.236;11.734;2023-12-22T14:29:37;15.70;95.70
29031;DHT22;16122;50.236;11.734;2023-12-22T14:32:06;15.60;95.70
29031;DHT22;16122;50.236;11.734;2023-12-22T14:34:34;15.60;95.70
29031;DHT22;16122;50.236;11.734;2023-12-22T14:37:00;15.60;95.70
29031;DHT22;16122;50.236;11.734;2023-12-22T14:39:26;15.70;95.80
29031;DHT22;16122;50.236;11.734;2023-12-22T14:41:52;15.70;95.80
29031;DHT22;16122;50.236;11.734;2023-12-22T14:44:19;15.70;95.80
29031;DHT22;16122;50.236;11.734;2023-12-22T14:46:45;15.70;95.80
29031;DHT22;16122;50.236;11.734;2023-12-22T14:49:11;15.70;95.70
29031;DHT22;16122;50.236;11.734;2023-12-22T14:51:37;15.70;95.70
29031;DHT22;16122;50.236;11.734;2023-12-22T14:54:07;15.60;95.60
29031;DHT22;16122;50.236;11.734;2023-12-22T14:56:38;15.70;95.70
29031;DHT22;16122;50.236;11.734;2023-12-22T14:59:11;15.70;95.70
29031;DHT22;16122;50.236;11.734;2023-12-22T15:01:37;15.70;95.60
29031;DHT22;16122;50.236;11.734;2023-12-22T15:04:04;15.70;95.60
29031;DHT22;16122;50.236;11.734;2023-12-22T15:06:31;15.60;95.60
29031;DHT22;16122;50.236;11.734;2023-12-22T15:08:57;15.60;95.60
29031;DHT22;16122;50.236;11.734;2023-12-22T15:11:27;15.70;95.60
29031;DHT22;16122;50.236;11.734;2023-12-22T15:13:52;15.60;95.60
29031;DHT22;16122;50.236;11.734;2023-12-22T15:16:18;15.70;95.70
29031;DHT22;16122;50.236;11.734;2023-12-22T15:18:44;15.60;95.60
29031;DHT22;16122;50.236;11.734;2023-12-22T15:21:19;15.70;95.70
29031;DHT22;16122;50.236;11.734;2023-12-22T15:23:45;15.70;95.70
29031;DHT22;16122;50.236;11.734;2023-12-22T15:26:20;15.70;95.70
29031;DHT22;16122;50.236;11.734;2023-12-22T15:28:46;15.60;95.70